KPZQ METAR Reports


Rogers City, Presque Isle County Airport, MI, United States (KPZQ) 45-24-25N 083-48-46W
Jun 22, 2018 - 12:15 PM EDT / 2018.06.22 1615 UTC
Wind: from the NE (050 degrees) at 6 MPH (5 KT):0
Visibility: 10 mile(s):0
Sky conditions: clear
Temperature: 66.0 F (18.9 C)
Dew Point: 53.4 F (11.9 C)
Relative Humidity: 63%
Pressure (altimeter): 29.97 in. Hg (1014 hPa)
ob: KPZQ 221615Z AUTO 05005KT 10SM CLR 19/12 A2997 RMK AO2 T01890119
cycle: 16

 

Rogers City METAR Meteogram

Nearby METAR Reports

KPZQ - Rogers City, Michigan, USA
Distance from station: SSW 1mi, 2km
Updated: Fri, 22-Jun-2018 12:15pm EDT
Clear
Clear
 Wind from NE
Wind: NE 6 mph , 9 km/h
Temperature: 66°F , 19°C
Dew Point: 54°F , 12°C
Humidity: 64%
Barometer: 29.97 inHg , 1014.9 hPa
Clouds: Clear
Visibility: 10 miles , 16 km
2018/06/22 16:15 KPZQ 221615Z AUTO 05005KT 10SM CLR 19/12 A2997 RMK AO2 T01890119
KAPN - Alpena, Michigan, USA
Distance from station: SSE 27mi, 43km
Updated: Fri, 22-Jun-2018 11:54am EDT
NOT Current
Clear
Clear
 Wind from E
Wind: E 8 mph , 13 km/h
Temperature: 72°F , 22°C
Dew Point: 46°F , 8°C
Humidity: 41%
Barometer: 29.97 inHg , 1014.9 hPa
Clouds: Clear
Visibility: 10 miles , 16 km
2018/06/22 15:54 KAPN 221554Z AUTO 10007KT 10SM CLR 22/08 A2997 RMK AO2 SLP149 T02220078
 
KSLH - Cheboygan, Michigan, USA
Distance from station: WNW 38mi, 61km
Updated: Fri, 22-Jun-2018 12:15pm EDT
Clear
Clear
 Wind from NE
Wind: NE 10 mph , 17 km/h
Temperature: 61°F , 16°C
Dew Point: 52°F , 11°C
Humidity: 72%
Barometer: 29.95 inHg , 1014.2 hPa
Clouds: Clear
Visibility: 10 miles , 16 km
2018/06/22 16:15 KSLH 221615Z AUTO 05009KT 10SM CLR 16/11 A2995 RMK AO2 T01680116
KDRM - Drummond Is, Michigan, USA
Distance from station: N 40mi, 65km
Updated: Fri, 22-Jun-2018 12:15pm EDT
Clear
Clear
 Wind from SSE
Wind: SSE 7 mph , 11 km/h
Temperature: 73°F , 23°C
Dew Point: 46°F , 8°C
Humidity: 38%
Barometer: 29.97 inHg , 1014.9 hPa
Clouds: Clear
Visibility: 10 miles , 16 km
2018/06/22 16:15 KDRM 221615Z AUTO 15006KT 10SM CLR 23/08 A2997 RMK AO2 T02250081
 
KPLN - Pellston, Michigan, USA
Distance from station: WNW 49mi, 79km
Updated: Fri, 22-Jun-2018 11:54am EDT
NOT Current
Clear
Clear
 Wind from E
Wind: E 7 mph , 11 km/h
Temperature: 70°F , 21°C
Dew Point: 48°F , 9°C
Humidity: 46%
Barometer: 29.96 inHg , 1014.6 hPa
Clouds: Clear
Visibility: 10 miles , 16 km
2018/06/22 15:54 KPLN 221554Z AUTO 10006KT 10SM CLR 21/09 A2996 RMK AO2 SLP146 T02110089
KMCD - Mackinac Island, Michigan, USA
Distance from station: NW 50mi, 80km
Updated: Fri, 22-Jun-2018 12:15pm EDT
Clear
Clear
 Wind from E
Wind: E 7 mph , 11 km/h, Gust: 17 mph , 28 km/h
Temperature: 61°F , 16°C
Dew Point: 50°F , 10°C
Humidity: 68%
Barometer: 29.98 inHg , 1015.2 hPa
Clouds: Clear
Visibility: 10 miles , 16 km
2018/06/22 16:15 KMCD 221615Z AUTO 08006G15KT 050V110 10SM CLR 16/10 A2998 RMK AO2 T01610104